Norbank — PGIS — position and weather

sailwx.info

Track history (hours):
 
Tides and Currents Weather Stations Pressure Air Temp Water Temp Dewpoint Dewpoint Depression Visibility Wind Speed Wind Dir Waves Ship Positions

Norbank

Operator: P & O Ferries

Last reported at 2015-May-21 23:13 UTC. Time now 2015-May-22 10:03 UTC.
Position N 53°34' W 003°52'.

Length 167 m; draft 5.8 m.

Type: Ship (hazmat cat A). MMSI: 246213000.

Date/timePositionNaut miles runAvg speedWind from/ knotsBaromVisibWave heightAir tempDewpointWater temp
2015-May-21 23:13N 53°34' W 003°52'1117.2
2015-May-21 22:33N 53°33' W 003°33'1616.5
2015-May-21 21:33N 53°30' W 003°06'4 4.1
2015-May-21 20:33N 53°27' W 003°01'0 0.2
2015-May-21 19:32N 53°27' W 003°01'0 0.0
2015-May-21 18:31N 53°27' W 003°01'0 0.0
2015-May-21 17:31N 53°27' W 003°01'0 0.0
2015-May-21 16:30N 53°27' W 003°01'0 0.4
2015-May-21 15:31N 53°27' W 003°01'6 6.5
2015-May-21 14:33N 53°32' W 003°08'1817.8
2015-May-21 13:33N 53°31' W 003°38'1817.8
2015-May-21 12:33N 53°33' W 004°08'2219.7
2015-May-21 11:28N 53°35' W 004°44'32 2.6
2015-May-20 23:04N 53°33' W 003°50'917.2
2015-May-20 22:33N 53°33' W 003°35'1716.9
2015-May-20 21:33N 53°31' W 003°07'6 5.5
2015-May-20 20:33N 53°27' W 003°01'0 0.4
2015-May-20 19:33N 53°27' W 003°01'0 0.0
2015-May-20 18:33N 53°27' W 003°01'0 0.0
2015-May-20 17:32N 53°27' W 003°01'0 0.0
2015-May-20 16:32N 53°27' W 003°01'0 0.4
2015-May-20 15:31N 53°27' W 003°01'7 7.4
2015-May-20 14:33N 53°32' W 003°10'1716.8
2015-May-20 13:33N 53°31' W 003°38'1716.8
2015-May-20 12:33N 53°34' W 004°06'8 0.6
2015-May-19 23:03N 53°34' W 003°53'917.6
2015-May-19 22:33N 53°33' W 003°39'1717.0
2015-May-19 21:34N 53°32' W 003°10'7 7.2
2015-May-19 20:33N 53°27' W 003°01'0 0.4
2015-May-19 19:32N 53°27' W 003°01'0 0.0
2015-May-19 18:31N 53°27' W 003°01'0 0.0
2015-May-19 17:28N 53°27' W 003°01'0 0.0
2015-May-19 16:33N 53°27' W 003°01'0 0.4
2015-May-19 15:33N 53°27' W 003°01'7 7.3
2015-May-19 14:33N 53°32' W 003°11'1817.7
2015-May-19 13:33N 53°32' W 003°41'1918.5
2015-May-19 12:32N 53°35' W 004°12'19 1.3
2015-May-18 22:33N 53°34' W 003°41'1817.7
2015-May-18 21:33N 53°32' W 003°11'8 7.7
2015-May-18 20:33N 53°27' W 003°01'0 0.4
2015-May-18 19:33N 53°27' W 003°01'0 0.0
2015-May-18 18:33N 53°27' W 003°01'0 0.0
2015-May-18 17:33N 53°27' W 003°01'0 0.0
2015-May-18 16:33N 53°27' W 003°01'0 0.0
2015-May-18 15:33N 53°27' W 003°01'0 0.0
2015-May-18 14:32N 53°27' W 003°01'0 0.0
2015-May-18 13:33N 53°27' W 003°01'0 0.0
2015-May-18 12:32N 53°27' W 003°01'0 0.0
2015-May-18 11:32N 53°27' W 003°01'0 0.0
2015-May-18 10:32N 53°27' W 003°01'0 0.0
2015-May-18 09:28N 53°27' W 003°01'0 0.0
2015-May-18 08:31N 53°27' W 003°01'0 0.0
2015-May-18 07:30N 53°27' W 003°01'0 0.0
2015-May-18 06:33N 53°27' W 003°01'0 0.0
2015-May-18 05:33N 53°27' W 003°01'0 0.0
2015-May-18 04:32N 53°27' W 003°01'0 0.5
2015-May-18 03:33N 53°27' W 003°01'9 8.7
2015-May-18 02:33N 53°31' W 003°14'1818.6
2015-May-18 01:34N 53°32' W 003°45'1717.3
2015-May-18 00:33N 53°33' W 004°14'15 1.1
2015-May-17 11:17N 53°34' W 003°49'1317.3
2015-May-17 10:33N 53°33' W 003°28'1616.2
2015-May-17 09:33N 53°27' W 003°02'1 0.7
2015-May-17 08:31N 53°27' W 003°01'0 0.0
2015-May-17 07:31N 53°27' W 003°01'0 0.0
2015-May-17 06:33N 53°27' W 003°01'0 0.0
2015-May-17 05:33N 53°27' W 003°01'0 0.0
2015-May-17 04:33N 53°27' W 003°01'0 0.5
2015-May-17 03:33N 53°27' W 003°01'9 8.9
2015-May-17 02:34N 53°31' W 003°14'1818.0
2015-May-17 01:34N 53°31' W 003°45'1919.2
2015-May-17 00:33N 53°35' W 004°17'17 1.3
2015-May-16 11:33N 53°33' W 003°48'2020.0
2015-May-16 10:33N 53°31' W 003°15'9 9.0
2015-May-16 09:33N 53°27' W 003°01'0 0.1
2015-May-16 08:31N 53°27' W 003°01'0 0.0
2015-May-16 07:30N 53°27' W 003°01'0 0.0
2015-May-16 06:33N 53°27' W 003°01'0 0.0
2015-May-16 05:32N 53°27' W 003°01'0 0.4
2015-May-16 04:33N 53°27' W 003°01'3 2.6
2015-May-16 03:33N 53°29' W 003°04'1414.5
2015-May-16 02:33N 53°31' W 003°28'1717.3
2015-May-16 01:34N 53°32' W 003°57'22 1.8
2015-May-15 13:13N 53°33' W 004°34'3520.8
2015-May-15 11:34N 53°33' W 003°36'1919.3
2015-May-15 10:33N 53°29' W 003°05'3 2.3
2015-May-15 09:27N 53°27' W 003°01'0 0.0
2015-May-15 08:30N 53°27' W 003°01'0 0.0
2015-May-15 07:32N 53°27' W 003°01'0 0.0
2015-May-15 06:32N 53°27' W 003°01'0 0.0
2015-May-15 05:31N 53°27' W 003°01'0 0.0
2015-May-15 04:31N 53°27' W 003°01'1 0.6
2015-May-15 03:33N 53°27' W 003°01'1111.4
2015-May-15 02:33N 53°31' W 003°19'1817.6
2015-May-15 01:33N 53°32' W 003°48'3517.3
2015-May-14 23:30N 53°34' W 004°48'34 2.7
2015-May-14 11:05N 53°34' W 003°50'1018.5
2015-May-14 10:34N 53°33' W 003°34'1817.8
2015-May-14 09:33N 53°29' W 003°05'3 2.7
2015-May-14 08:28N 53°27' W 003°01'0 0.0
2015-May-14 07:27N 53°27' W 003°01'0 0.0
2015-May-14 06:33N 53°27' W 003°01'0 0.0
2015-May-14 05:30N 53°27' W 003°01'0 0.0
2015-May-14 04:32N 53°27' W 003°01'1 0.7
2015-May-14 03:34N 53°27' W 003°01'1414.0
2015-May-14 02:33N 53°31' W 003°24'1616.4
2015-May-14 01:33N 53°32' W 003°51'1817.5
2015-May-14 00:31N 53°35' W 004°21'1717.7
2015-May-13 23:33N 53°35' W 004°50'1917.8
2015-May-13 22:30N 53°29' W 005°20'19 2.6
2015-May-13 15:04N 53°24' W 005°51'7118.1
2015-May-13 11:11N 53°34' W 003°53'1320.4
2015-May-13 10:34N 53°34' W 003°32'1817.9
2015-May-13 09:33N 53°28' W 003°03'2 1.6
2015-May-13 08:33N 53°27' W 003°01'0 0.0
2015-May-13 07:32N 53°27' W 003°01'0 0.0
2015-May-13 06:29N 53°27' W 003°01'0 0.0
2015-May-13 05:32N 53°27' W 003°01'0 0.0
2015-May-13 04:31N 53°27' W 003°01'1 0.6
2015-May-13 03:33N 53°27' W 003°01'1414.1
2015-May-13 02:34N 53°31' W 003°24'1817.9
2015-May-13 01:34N 53°32' W 003°54'1817.5
2015-May-13 00:33N 53°35' W 004°23'23 1.8
2015-May-12 11:33N 53°33' W 003°44'1919.3
2015-May-12 10:33N 53°32' W 003°11'8 7.4
2015-May-12 09:32N 53°27' W 003°01'0 0.4
2015-May-12 08:29N 53°27' W 003°01'0 0.0
2015-May-12 07:31N 53°27' W 003°01'0 0.0
2015-May-12 06:31N 53°27' W 003°01'0 0.0
2015-May-12 05:30N 53°27' W 003°01'0 0.5
2015-May-12 04:33N 53°27' W 003°01'7 6.8
2015-May-12 03:33N 53°32' W 003°09'1615.9
2015-May-12 02:33N 53°31' W 003°36'1515.4
2015-May-12 01:33N 53°33' W 004°02'1615.9
2015-May-12 00:33N 53°37' W 004°28'  
Track history (hours):
 
Tides and Currents Weather Stations Pressure Air Temp Water Temp Dewpoint Dewpoint Depression Visibility Wind Speed Wind Dir Waves Ship Positions

Norbank

Operator: P & O Ferries

Last reported at 2015-May-21 23:13 UTC. Time now 2015-May-22 10:03 UTC.
Position N 53°34' W 003°52'.

Length 167 m; draft 5.8 m.

Type: Ship (hazmat cat A). MMSI: 246213000.

Date/timePositionNaut miles runAvg speedWind from/ knotsBaromVisibWave heightAir tempDewpointWater temp
2015-May-21 23:13N 53°34' W 003°52'1117.2
2015-May-21 22:33N 53°33' W 003°33'1616.5
2015-May-21 21:33N 53°30' W 003°06'4 4.1
2015-May-21 20:33N 53°27' W 003°01'0 0.2
2015-May-21 19:32N 53°27' W 003°01'0 0.0
2015-May-21 18:31N 53°27' W 003°01'0 0.0
2015-May-21 17:31N 53°27' W 003°01'0 0.0
2015-May-21 16:30N 53°27' W 003°01'0 0.4
2015-May-21 15:31N 53°27' W 003°01'6 6.5
2015-May-21 14:33N 53°32' W 003°08'1817.8
2015-May-21 13:33N 53°31' W 003°38'1817.8
2015-May-21 12:33N 53°33' W 004°08'2219.7
2015-May-21 11:28N 53°35' W 004°44'32 2.6
2015-May-20 23:04N 53°33' W 003°50'917.2
2015-May-20 22:33N 53°33' W 003°35'1716.9
2015-May-20 21:33N 53°31' W 003°07'6 5.5
2015-May-20 20:33N 53°27' W 003°01'0 0.4
2015-May-20 19:33N 53°27' W 003°01'0 0.0
2015-May-20 18:33N 53°27' W 003°01'0 0.0
2015-May-20 17:32N 53°27' W 003°01'0 0.0
2015-May-20 16:32N 53°27' W 003°01'0 0.4
2015-May-20 15:31N 53°27' W 003°01'7 7.4
2015-May-20 14:33N 53°32' W 003°10'1716.8
2015-May-20 13:33N 53°31' W 003°38'1716.8
2015-May-20 12:33N 53°34' W 004°06'8 0.6
2015-May-19 23:03N 53°34' W 003°53'917.6
2015-May-19 22:33N 53°33' W 003°39'1717.0
2015-May-19 21:34N 53°32' W 003°10'7 7.2
2015-May-19 20:33N 53°27' W 003°01'0 0.4
2015-May-19 19:32N 53°27' W 003°01'0 0.0
2015-May-19 18:31N 53°27' W 003°01'0 0.0
2015-May-19 17:28N 53°27' W 003°01'0 0.0
2015-May-19 16:33N 53°27' W 003°01'0 0.4
2015-May-19 15:33N 53°27' W 003°01'7 7.3
2015-May-19 14:33N 53°32' W 003°11'1817.7
2015-May-19 13:33N 53°32' W 003°41'1918.5
2015-May-19 12:32N 53°35' W 004°12'19 1.3
2015-May-18 22:33N 53°34' W 003°41'1817.7
2015-May-18 21:33N 53°32' W 003°11'8 7.7
2015-May-18 20:33N 53°27' W 003°01'0 0.4
2015-May-18 19:33N 53°27' W 003°01'0 0.0
2015-May-18 18:33N 53°27' W 003°01'0 0.0
2015-May-18 17:33N 53°27' W 003°01'0 0.0
2015-May-18 16:33N 53°27' W 003°01'0 0.0
2015-May-18 15:33N 53°27' W 003°01'0 0.0
2015-May-18 14:32N 53°27' W 003°01'0 0.0
2015-May-18 13:33N 53°27' W 003°01'0 0.0
2015-May-18 12:32N 53°27' W 003°01'0 0.0
2015-May-18 11:32N 53°27' W 003°01'0 0.0
2015-May-18 10:32N 53°27' W 003°01'0 0.0
2015-May-18 09:28N 53°27' W 003°01'0 0.0
2015-May-18 08:31N 53°27' W 003°01'0 0.0
2015-May-18 07:30N 53°27' W 003°01'0 0.0
2015-May-18 06:33N 53°27' W 003°01'0 0.0
2015-May-18 05:33N 53°27' W 003°01'0 0.0
2015-May-18 04:32N 53°27' W 003°01'0 0.5
2015-May-18 03:33N 53°27' W 003°01'9 8.7
2015-May-18 02:33N 53°31' W 003°14'1818.6
2015-May-18 01:34N 53°32' W 003°45'1717.3
2015-May-18 00:33N 53°33' W 004°14'15 1.1
2015-May-17 11:17N 53°34' W 003°49'1317.3
2015-May-17 10:33N 53°33' W 003°28'1616.2
2015-May-17 09:33N 53°27' W 003°02'1 0.7
2015-May-17 08:31N 53°27' W 003°01'0 0.0
2015-May-17 07:31N 53°27' W 003°01'0 0.0
2015-May-17 06:33N 53°27' W 003°01'0 0.0
2015-May-17 05:33N 53°27' W 003°01'0 0.0
2015-May-17 04:33N 53°27' W 003°01'0 0.5
2015-May-17 03:33N 53°27' W 003°01'9 8.9
2015-May-17 02:34N 53°31' W 003°14'1818.0
2015-May-17 01:34N 53°31' W 003°45'1919.2
2015-May-17 00:33N 53°35' W 004°17'17 1.3
2015-May-16 11:33N 53°33' W 003°48'2020.0
2015-May-16 10:33N 53°31' W 003°15'9 9.0
2015-May-16 09:33N 53°27' W 003°01'0 0.1
2015-May-16 08:31N 53°27' W 003°01'0 0.0
2015-May-16 07:30N 53°27' W 003°01'0 0.0
2015-May-16 06:33N 53°27' W 003°01'0 0.0
2015-May-16 05:32N 53°27' W 003°01'0 0.4
2015-May-16 04:33N 53°27' W 003°01'3 2.6
2015-May-16 03:33N 53°29' W 003°04'1414.5
2015-May-16 02:33N 53°31' W 003°28'1717.3
2015-May-16 01:34N 53°32' W 003°57'22 1.8
2015-May-15 13:13N 53°33' W 004°34'3520.8
2015-May-15 11:34N 53°33' W 003°36'1919.3
2015-May-15 10:33N 53°29' W 003°05'3 2.3
2015-May-15 09:27N 53°27' W 003°01'0 0.0
2015-May-15 08:30N 53°27' W 003°01'0 0.0
2015-May-15 07:32N 53°27' W 003°01'0 0.0
2015-May-15 06:32N 53°27' W 003°01'0 0.0
2015-May-15 05:31N 53°27' W 003°01'0 0.0
2015-May-15 04:31N 53°27' W 003°01'1 0.6
2015-May-15 03:33N 53°27' W 003°01'1111.4
2015-May-15 02:33N 53°31' W 003°19'1817.6
2015-May-15 01:33N 53°32' W 003°48'3517.3
2015-May-14 23:30N 53°34' W 004°48'34 2.7
2015-May-14 11:05N 53°34' W 003°50'1018.5
2015-May-14 10:34N 53°33' W 003°34'1817.8
2015-May-14 09:33N 53°29' W 003°05'3 2.7
2015-May-14 08:28N 53°27' W 003°01'0 0.0
2015-May-14 07:27N 53°27' W 003°01'0 0.0
2015-May-14 06:33N 53°27' W 003°01'0 0.0
2015-May-14 05:30N 53°27' W 003°01'0 0.0
2015-May-14 04:32N 53°27' W 003°01'1 0.7
2015-May-14 03:34N 53°27' W 003°01'1414.0
2015-May-14 02:33N 53°31' W 003°24'1616.4
2015-May-14 01:33N 53°32' W 003°51'1817.5
2015-May-14 00:31N 53°35' W 004°21'1717.7
2015-May-13 23:33N 53°35' W 004°50'1917.8
2015-May-13 22:30N 53°29' W 005°20'19 2.6
2015-May-13 15:04N 53°24' W 005°51'7118.1
2015-May-13 11:11N 53°34' W 003°53'1320.4
2015-May-13 10:34N 53°34' W 003°32'1817.9
2015-May-13 09:33N 53°28' W 003°03'2 1.6
2015-May-13 08:33N 53°27' W 003°01'0 0.0
2015-May-13 07:32N 53°27' W 003°01'0 0.0
2015-May-13 06:29N 53°27' W 003°01'0 0.0
2015-May-13 05:32N 53°27' W 003°01'0 0.0
2015-May-13 04:31N 53°27' W 003°01'1 0.6
2015-May-13 03:33N 53°27' W 003°01'1414.1
2015-May-13 02:34N 53°31' W 003°24'1817.9
2015-May-13 01:34N 53°32' W 003°54'1817.5
2015-May-13 00:33N 53°35' W 004°23'23 1.8
2015-May-12 11:33N 53°33' W 003°44'1919.3
2015-May-12 10:33N 53°32' W 003°11'8 7.4
2015-May-12 09:32N 53°27' W 003°01'0 0.4
2015-May-12 08:29N 53°27' W 003°01'0 0.0
2015-May-12 07:31N 53°27' W 003°01'0 0.0
2015-May-12 06:31N 53°27' W 003°01'0 0.0
2015-May-12 05:30N 53°27' W 003°01'0 0.5
2015-May-12 04:33N 53°27' W 003°01'7 6.8
2015-May-12 03:33N 53°32' W 003°09'1615.9
2015-May-12 02:33N 53°31' W 003°36'1515.4
2015-May-12 01:33N 53°33' W 004°02'1615.9
2015-May-12 00:33N 53°37' W 004°28'  

Dump ship's entire track history